Airfield :
LOGIN :

Register | Disclaimer

   EN    FR    IT 

 










Legend :    VFR   Marginal VFR   IFR   Intensive IFR   Very Intensive IFR
Visi :
Ceiling :
>= 8 km
>= 3000ft
5 to 8 km
1000 to 3000 ft
1500m to 5 km
500 to 1000 ft
800 to 1500m
200 to 500 ft
< 800m
< 200 ft
Symbols :   Thunderstorms  Fog  Heavy snow  Heavy precipitations  Wind > 20 kt
SIGMETs :     Misc.  Thunderstorms  Icing  Turbulence  Mountain Waves  Volcanic Ashes







- Airport Elevation : 485 ft
- IATA code : QSA


LELL - Sabadell

CURRENT METAR :
  • 212230Z AUTO 00000KT 9999 SCT032/// 24/20 Q1016

EXPIRED METARs :
  • 212200Z AUTO VRB02KT 9999 FEW026/// SCT032/// 24/20 Q1015
  • 212130Z AUTO 17003KT 9999 NCD 24/20 Q1015
  • 212100Z AUTO 15002KT 9999 NCD 24/20 Q1015
  • 212030Z AUTO 17004KT CAVOK 24/20 Q1015
  • 212000Z AUTO 15004KT 130V190 CAVOK 24/19 Q1015

TAF TAF LELL
Valid from the 21 at 15:00 until the 22 at 15:00 UTC


211400Z 2115/2215 18009KT 9999 FEW030 TX27/2213Z TN19/2205Z
PROB30
TEMPO 2115/2119 4000 TSRA FEW030CB
BECMG 2119/2121 VRB03KT
TEMPO 2203/2215 4000 SHRA FEW020CB BKN025
PROB30
TEMPO 2206/2215 3000 TSRA SCT015CB BKN020
BECMG 2210/2212 14008KT
No reported NOTAMs for that airfield.



MET'MAP, your aeronautical weather chart ! - Copyright ORBIFLY December 2007 - Disclaimer

ORBIFLY MET'MAP TEAM :

Programming & Development : Alexandra Zaïnal
Concept & Development : Baudouin d'Aumeries
Co-Development & Prog : Marc-Olivier Méhu
Technical & hardware support : Manuel Goepfert

Contact : metmap@orbifly.com




SOURCES & CREDITS :

   NOAA